Time;durP1;ratioP1;P1;durP2;ratioP2;P2;SDS_P1;SDS_P2;PMS_P1;PMS_P2;Temp;Humidity;BMP_temperature;BMP_pressure;BME280_temperature;BME280_humidity;BME280_pressure;Samples;Min_cycle;Max_cycle;Signal;HPM_P1;HPM_P2
2021/09/06 00:00:14;;;;;;;12.50;11.20;;;13.20;99.90;;;;;;5067571;28;20451;-64
2021/09/06 00:02:42;;;;;;;13.50;12.10;;;13.20;99.90;;;;;;5074621;28;20439;-64
2021/09/06 00:05:12;;;;;;;15.30;12.83;;;13.20;99.90;;;;;;5082849;28;20533;-65
2021/09/06 00:07:42;;;;;;;13.50;12.10;;;13.20;99.90;;;;;;5087422;28;20452;-65
2021/09/06 00:10:30;;;;;;;13.63;11.03;;;13.30;99.90;;;;;;5087338;28;21013;-65
2021/09/06 00:12:57;;;;;;;14.20;11.90;;;13.20;99.90;;;;;;5087133;28;20481;-64
2021/09/06 00:15:24;;;;;;;12.57;11.27;;;13.20;99.90;;;;;;5087447;28;20450;-64
2021/09/06 00:17:51;;;;;;;14.23;11.63;;;13.20;99.90;;;;;;5087260;28;20493;-65
2021/09/06 00:20:20;;;;;;;13.40;12.03;;;13.00;99.90;;;;;;5087793;28;20541;-66
2021/09/06 00:22:47;;;;;;;14.53;11.80;;;12.90;99.90;;;;;;5087271;28;20541;-65
2021/09/06 00:25:14;;;;;;;13.33;11.17;;;12.80;99.90;;;;;;5087839;28;20461;-65
2021/09/06 00:27:41;;;;;;;11.63;10.53;;;12.80;99.90;;;;;;5089543;28;20484;-64
2021/09/06 00:30:08;;;;;;;14.37;12.07;;;12.80;99.90;;;;;;5091692;28;20456;-64
2021/09/06 00:32:35;;;;;;;15.00;12.20;;;12.80;99.90;;;;;;5080437;28;20906;-65
2021/09/06 00:35:02;;;;;;;12.87;11.33;;;12.80;99.90;;;;;;5076438;28;20483;-65
2021/09/06 00:37:30;;;;;;;12.97;10.87;;;12.80;99.90;;;;;;5081627;28;20450;-65
2021/09/06 00:39:57;;;;;;;14.13;12.37;;;12.80;99.90;;;;;;5075246;28;20466;-65
2021/09/06 00:42:24;;;;;;;13.60;10.90;;;12.80;99.90;;;;;;5093453;28;20452;-65
2021/09/06 00:44:51;;;;;;;12.70;11.50;;;12.80;99.90;;;;;;5094470;28;21006;-65
2021/09/06 00:47:18;;;;;;;14.53;11.07;;;12.70;99.90;;;;;;5094542;28;20446;-65
2021/09/06 00:49:45;;;;;;;14.27;11.60;;;12.80;99.90;;;;;;5094135;28;20827;-65
2021/09/06 00:52:12;;;;;;;14.00;12.13;;;12.80;99.90;;;;;;5093551;28;20970;-65
2021/09/06 00:54:40;;;;;;;15.53;12.33;;;12.70;99.90;;;;;;5093650;28;20469;-64
2021/09/06 00:57:07;;;;;;;12.93;11.63;;;12.60;99.90;;;;;;5094190;28;20453;-64
2021/09/06 00:59:34;;;;;;;17.00;14.50;;;12.60;99.90;;;;;;5093905;28;20485;-65
2021/09/06 01:02:01;;;;;;;16.87;15.07;;;12.60;99.90;;;;;;5093454;28;20460;-65
2021/09/06 01:04:28;;;;;;;18.83;16.03;;;12.60;99.90;;;;;;5093731;28;20545;-65
2021/09/06 01:06:55;;;;;;;21.73;15.83;;;12.70;99.90;;;;;;5093555;28;20454;-65
2021/09/06 01:09:22;;;;;;;17.93;13.83;;;12.70;99.90;;;;;;5093541;28;20533;-65
2021/09/06 01:11:50;;;;;;;17.23;14.27;;;12.70;99.90;;;;;;5093335;28;20446;-64
2021/09/06 01:14:17;;;;;;;16.77;13.70;;;12.70;99.90;;;;;;5093732;28;20454;-65
2021/09/06 01:16:43;;;;;;;14.60;13.00;;;12.60;99.90;;;;;;5093524;28;20868;-65
2021/09/06 01:19:10;;;;;;;14.27;12.10;;;12.60;99.90;;;;;;5093497;28;20492;-65
2021/09/06 01:21:38;;;;;;;12.30;11.00;;;12.60;99.90;;;;;;5093312;28;20477;-64
2021/09/06 01:24:05;;;;;;;13.50;11.47;;;12.50;99.90;;;;;;5093402;28;20829;-65
2021/09/06 01:26:33;;;;;;;13.53;11.07;;;12.50;99.90;;;;;;5093614;28;20458;-65
2021/09/06 01:29:00;;;;;;;14.60;12.47;;;12.50;99.90;;;;;;5093172;28;20561;-65
2021/09/06 01:31:27;;;;;;;14.27;12.30;;;12.40;99.90;;;;;;5093138;28;20953;-65
2021/09/06 01:33:54;;;;;;;15.90;13.50;;;12.40;99.90;;;;;;5093004;28;20467;-64
2021/09/06 01:36:21;;;;;;;12.73;10.80;;;12.50;99.90;;;;;;5093317;28;20481;-64
2021/09/06 01:38:48;;;;;;;13.63;11.97;;;12.50;99.90;;;;;;5092914;28;20510;-64
2021/09/06 01:41:15;;;;;;;13.47;10.97;;;12.40;99.90;;;;;;5093731;28;20812;-64
2021/09/06 01:43:43;;;;;;;12.97;11.60;;;12.40;99.90;;;;;;5093003;28;20525;-65
2021/09/06 01:46:10;;;;;;;12.67;11.23;;;12.30;99.90;;;;;;5093830;28;21083;-65
2021/09/06 01:48:37;;;;;;;12.63;11.33;;;12.30;99.90;;;;;;5093970;28;20446;-65
2021/09/06 01:51:04;;;;;;;13.83;12.33;;;12.30;99.90;;;;;;5094463;28;20438;-65
2021/09/06 01:53:31;;;;;;;12.73;10.87;;;12.20;99.90;;;;;;5093804;28;20512;-65
2021/09/06 01:55:57;;;;;;;12.80;11.40;;;12.20;99.90;;;;;;5095615;28;20452;-65
2021/09/06 01:58:24;;;;;;;13.60;12.07;;;12.20;99.90;;;;;;5095686;28;20564;-66
2021/09/06 02:00:53;;;;;;;14.13;11.77;;;12.10;99.90;;;;;;5092956;28;20549;-66
2021/09/06 02:03:19;;;;;;;11.93;10.67;;;12.10;99.90;;;;;;5092330;28;20993;-64
2021/09/06 02:05:46;;;;;;;12.60;11.23;;;12.10;99.90;;;;;;5092408;28;20546;-64
2021/09/06 02:08:13;;;;;;;13.70;11.67;;;12.20;99.90;;;;;;5092866;28;20434;-65
2021/09/06 02:10:40;;;;;;;13.37;11.10;;;12.10;99.90;;;;;;5092452;28;20936;-66
2021/09/06 02:13:07;;;;;;;13.47;12.03;;;12.10;99.90;;;;;;5092279;28;20498;-65
2021/09/06 02:15:33;;;;;;;13.23;11.83;;;12.00;99.90;;;;;;5092320;28;20449;-65
2021/09/06 02:18:02;;;;;;;13.30;11.87;;;12.00;99.90;;;;;;5092165;28;20461;-65
2021/09/06 02:20:29;;;;;;;12.77;11.00;;;12.00;99.90;;;;;;5092595;28;20541;-64
2021/09/06 02:22:55;;;;;;;14.57;12.37;;;12.00;99.90;;;;;;5091935;28;20448;-66
2021/09/06 02:25:22;;;;;;;13.53;12.13;;;12.00;99.90;;;;;;5092388;28;20462;-64
2021/09/06 02:27:50;;;;;;;16.23;12.47;;;11.90;99.90;;;;;;5092065;28;20446;-65
2021/09/06 02:30:17;;;;;;;15.00;13.30;;;12.00;99.90;;;;;;5092046;28;20450;-65
2021/09/06 02:32:44;;;;;;;13.73;11.70;;;11.90;99.90;;;;;;5091806;28;20538;-64
2021/09/06 02:35:12;;;;;;;14.13;11.53;;;12.00;99.90;;;;;;5092123;28;20942;-64
2021/09/06 02:37:39;;;;;;;12.40;11.10;;;12.00;99.90;;;;;;5091808;28;20449;-65
2021/09/06 02:40:07;;;;;;;14.30;10.80;;;11.90;99.90;;;;;;5093024;28;20526;-65
2021/09/06 02:42:34;;;;;;;14.47;11.70;;;11.90;99.90;;;;;;5091784;28;20448;-65
2021/09/06 02:45:01;;;;;;;12.97;11.67;;;11.80;99.90;;;;;;5091840;28;20893;-65
2021/09/06 02:47:29;;;;;;;15.53;11.90;;;11.70;99.90;;;;;;5092379;28;20446;-65
2021/09/06 02:49:57;;;;;;;13.80;12.30;;;11.70;99.90;;;;;;5090976;28;20932;-64
2021/09/06 02:52:26;;;;;;;14.20;11.77;;;11.70;99.90;;;;;;5091446;28;20446;-65
2021/09/06 02:54:53;;;;;;;13.03;11.77;;;11.70;99.90;;;;;;5091537;28;20462;-64
2021/09/06 02:57:19;;;;;;;15.50;13.00;;;11.70;99.90;;;;;;5091935;28;20525;-65
2021/09/06 02:59:46;;;;;;;14.63;13.00;;;11.70;99.90;;;;;;5091150;28;20580;-65
2021/09/06 03:02:13;;;;;;;14.60;12.10;;;11.60;99.90;;;;;;5090962;28;20526;-65
2021/09/06 03:04:40;;;;;;;13.50;12.10;;;11.80;99.90;;;;;;5091080;28;20472;-64
2021/09/06 03:07:07;;;;;;;15.90;12.60;;;11.70;99.90;;;;;;5091341;28;20442;-65
2021/09/06 03:09:35;;;;;;;15.97;12.80;;;11.70;99.90;;;;;;5091261;28;21027;-65
2021/09/06 03:12:03;;;;;;;14.37;12.43;;;11.70;99.90;;;;;;5090611;28;20450;-64
2021/09/06 03:14:30;;;;;;;15.53;12.50;;;11.70;99.90;;;;;;5091187;28;20472;-65
2021/09/06 03:16:56;;;;;;;13.93;12.40;;;11.60;99.90;;;;;;5091143;28;20867;-64
2021/09/06 03:19:23;;;;;;;14.57;13.03;;;11.60;99.90;;;;;;5091193;28;20477;-65
2021/09/06 03:21:50;;;;;;;16.23;13.60;;;11.60;99.90;;;;;;5090927;28;20438;-65
2021/09/06 03:24:17;;;;;;;18.07;12.20;;;11.50;99.90;;;;;;5091080;28;20466;-65
2021/09/06 03:26:45;;;;;;;16.40;14.17;;;11.50;99.90;;;;;;5090884;28;20457;-65
2021/09/06 03:29:12;;;;;;;17.87;13.13;;;11.50;99.90;;;;;;5091031;28;20482;-65
2021/09/06 03:31:39;;;;;;;16.57;14.60;;;11.50;99.90;;;;;;5090554;28;20940;-65
2021/09/06 03:34:06;;;;;;;14.90;13.30;;;11.60;99.90;;;;;;5090785;28;20553;-65
2021/09/06 03:36:33;;;;;;;15.33;12.97;;;11.60;99.90;;;;;;5090803;28;20448;-65
2021/09/06 03:39:00;;;;;;;16.70;13.33;;;11.50;99.90;;;;;;5090715;28;20583;-64
2021/09/06 03:41:26;;;;;;;16.77;13.73;;;11.50;99.90;;;;;;5090482;28;20460;-65
2021/09/06 03:43:55;;;;;;;17.17;13.10;;;11.50;99.90;;;;;;5090558;28;20501;-65
2021/09/06 03:46:21;;;;;;;16.50;13.33;;;11.50;99.90;;;;;;5090600;28;20457;-65
2021/09/06 03:48:48;;;;;;;16.20;13.70;;;11.40;99.90;;;;;;5090491;28;20541;-65
2021/09/06 03:51:15;;;;;;;17.53;13.20;;;11.40;99.90;;;;;;5090388;28;20438;-66
2021/09/06 03:53:42;;;;;;;14.80;13.20;;;11.40;99.90;;;;;;5089934;28;20498;-66
2021/09/06 03:56:09;;;;;;;17.80;15.13;;;11.30;99.90;;;;;;5090584;28;20438;-67
2021/09/06 03:58:36;;;;;;;16.13;12.93;;;11.30;99.90;;;;;;5090693;28;20450;-64
2021/09/06 04:01:04;;;;;;;15.53;13.60;;;11.20;99.90;;;;;;5090399;28;20454;-65
2021/09/06 04:03:31;;;;;;;14.40;12.90;;;11.20;99.90;;;;;;5090172;28;20474;-64
2021/09/06 04:05:58;;;;;;;17.40;13.83;;;11.20;99.90;;;;;;5090319;28;20460;-64
2021/09/06 04:08:25;;;;;;;14.63;12.67;;;11.10;99.90;;;;;;5090379;28;20454;-64
2021/09/06 04:10:52;;;;;;;15.20;12.00;;;11.10;99.90;;;;;;5090650;28;20450;-64
2021/09/06 04:13:19;;;;;;;14.50;13.00;;;11.10;99.90;;;;;;5090200;28;20462;-66
2021/09/06 04:15:47;;;;;;;14.20;12.80;;;11.10;99.90;;;;;;5090449;28;20820;-65
2021/09/06 04:18:15;;;;;;;14.17;12.53;;;11.20;99.90;;;;;;5090346;28;20940;-65
2021/09/06 04:20:42;;;;;;;16.60;13.40;;;11.20;99.90;;;;;;5089955;28;20478;-65
2021/09/06 04:23:09;;;;;;;14.83;12.93;;;11.10;99.90;;;;;;5090056;28;20470;-65
2021/09/06 04:25:36;;;;;;;15.10;12.80;;;11.10;99.90;;;;;;5090830;28;20505;-66
2021/09/06 04:28:03;;;;;;;15.80;14.00;;;11.00;99.90;;;;;;5090481;28;20442;-65
2021/09/06 04:30:30;;;;;;;15.63;13.60;;;11.00;99.90;;;;;;5090174;28;20534;-65
2021/09/06 04:32:57;;;;;;;16.73;14.60;;;11.00;99.90;;;;;;5089746;28;20489;-65
2021/09/06 04:35:26;;;;;;;14.87;12.10;;;11.00;99.90;;;;;;5089959;28;20452;-65
2021/09/06 04:37:53;;;;;;;15.07;12.70;;;10.90;99.90;;;;;;5090375;28;20438;-65
2021/09/06 04:40:20;;;;;;;17.70;13.00;;;10.90;99.90;;;;;;5090927;28;20573;-66
2021/09/06 04:42:47;;;;;;;13.77;12.30;;;10.90;99.90;;;;;;5090242;28;20528;-65
2021/09/06 04:45:14;;;;;;;17.07;13.70;;;10.90;99.90;;;;;;5091043;28;20446;-65
2021/09/06 04:47:41;;;;;;;14.73;13.10;;;10.90;99.90;;;;;;5090995;28;20448;-65
2021/09/06 04:50:08;;;;;;;16.50;13.77;;;10.80;99.90;;;;;;5090242;28;20512;-65
2021/09/06 04:52:37;;;;;;;14.50;11.60;;;10.80;99.90;;;;;;5089639;28;20454;-65
2021/09/06 04:55:04;;;;;;;17.03;13.33;;;10.70;99.90;;;;;;5089825;28;20557;-65
2021/09/06 04:57:31;;;;;;;14.23;12.73;;;10.70;99.90;;;;;;5089916;28;20445;-65
2021/09/06 04:59:58;;;;;;;16.67;14.87;;;10.70;99.90;;;;;;5090097;28;20923;-65
2021/09/06 05:02:25;;;;;;;18.30;14.27;;;10.80;99.90;;;;;;5089212;28;20450;-65
2021/09/06 05:04:51;;;;;;;17.53;14.67;;;10.90;99.90;;;;;;5089340;28;20466;-66
2021/09/06 05:07:18;;;;;;;20.50;14.73;;;11.00;99.90;;;;;;5089765;28;20438;-65
2021/09/06 05:09:46;;;;;;;16.07;13.93;;;11.00;99.90;;;;;;5089652;28;20548;-65
2021/09/06 05:12:14;;;;;;;17.30;14.30;;;10.90;99.90;;;;;;5089361;28;20450;-65
2021/09/06 05:14:41;;;;;;;17.07;13.20;;;11.00;99.90;;;;;;5092898;28;20470;-66
2021/09/06 05:17:08;;;;;;;17.60;15.20;;;11.10;99.90;;;;;;5093062;28;20452;-65
2021/09/06 05:19:35;;;;;;;15.70;12.50;;;11.10;99.90;;;;;;5093234;28;20473;-65
2021/09/06 05:22:02;;;;;;;14.57;12.90;;;11.10;99.90;;;;;;5092841;28;20442;-65
2021/09/06 05:24:28;;;;;;;17.20;15.07;;;11.10;99.90;;;;;;5093257;28;20466;-66
2021/09/06 05:26:57;;;;;;;18.97;13.83;;;11.10;99.90;;;;;;5093072;28;20990;-65
2021/09/06 05:29:24;;;;;;;16.27;13.67;;;11.20;99.90;;;;;;5093063;28;20885;-65
2021/09/06 05:31:51;;;;;;;20.97;13.03;;;11.30;99.90;;;;;;5092167;28;21027;-65
2021/09/06 05:34:18;;;;;;;17.40;14.23;;;11.30;99.90;;;;;;5092742;28;20574;-65
2021/09/06 05:36:45;;;;;;;17.17;14.77;;;11.20;99.90;;;;;;5092751;28;20936;-65
2021/09/06 05:39:11;;;;;;;16.80;14.43;;;11.20;99.90;;;;;;5092433;28;20559;-65
2021/09/06 05:41:38;;;;;;;16.00;13.63;;;11.30;99.90;;;;;;5092256;28;20438;-65
2021/09/06 05:44:08;;;;;;;16.00;14.30;;;11.30;99.90;;;;;;5092356;28;20493;-65
2021/09/06 05:46:35;;;;;;;19.00;14.17;;;11.40;99.90;;;;;;5092594;28;20525;-65
2021/09/06 05:49:02;;;;;;;16.47;13.87;;;11.60;99.90;;;;;;5092315;28;20457;-65
2021/09/06 05:51:29;;;;;;;15.00;12.53;;;11.60;99.90;;;;;;5092039;28;20958;-65
2021/09/06 05:53:56;;;;;;;15.83;13.87;;;11.60;99.90;;;;;;5091981;28;20887;-65
2021/09/06 05:56:23;;;;;;;15.67;14.17;;;11.70;99.90;;;;;;5092159;28;20452;-65
2021/09/06 05:58:49;;;;;;;16.57;13.60;;;11.70;99.90;;;;;;5091817;28;20842;-65
2021/09/06 06:01:18;;;;;;;15.13;13.20;;;11.80;99.90;;;;;;5092079;28;20504;-65
2021/09/06 06:03:45;;;;;;;15.10;13.50;;;11.90;99.90;;;;;;5091735;28;20469;-65
2021/09/06 06:06:12;;;;;;;15.47;13.20;;;11.90;99.90;;;;;;5091812;28;20902;-65
2021/09/06 06:08:38;;;;;;;14.97;13.07;;;11.90;99.90;;;;;;5091935;28;20457;-65
2021/09/06 06:11:05;;;;;;;15.20;13.00;;;12.00;99.90;;;;;;5091728;28;20828;-65
2021/09/06 06:13:32;;;;;;;19.53;14.27;;;12.20;99.90;;;;;;5091294;28;20462;-65
2021/09/06 06:15:59;;;;;;;16.93;13.80;;;12.20;99.90;;;;;;5091598;28;20439;-65
2021/09/06 06:18:27;;;;;;;15.77;12.87;;;12.40;99.90;;;;;;5091768;28;20454;-65
2021/09/06 06:20:54;;;;;;;15.13;12.43;;;12.50;99.90;;;;;;5091366;28;20480;-65
2021/09/06 06:23:21;;;;;;;16.90;12.63;;;12.60;99.90;;;;;;5091249;28;20468;-65
2021/09/06 06:25:48;;;;;;;16.13;13.00;;;12.70;99.90;;;;;;5091332;28;21155;-65
2021/09/06 06:28:14;;;;;;;15.60;12.60;;;12.80;99.90;;;;;;5091537;28;20473;-65
2021/09/06 06:30:41;;;;;;;15.90;13.60;;;12.90;99.90;;;;;;5091633;28;20450;-65
2021/09/06 06:33:08;;;;;;;14.80;12.83;;;12.90;99.90;;;;;;5090905;28;20466;-65
2021/09/06 06:35:37;;;;;;;17.37;13.13;;;13.00;99.90;;;;;;5091570;28;20446;-65
2021/09/06 06:38:04;;;;;;;16.10;13.20;;;13.00;99.90;;;;;;5091343;28;20492;-65
2021/09/06 06:40:31;;;;;;;18.00;12.93;;;13.10;99.90;;;;;;5091156;28;20474;-65
2021/09/06 06:42:58;;;;;;;17.17;13.87;;;13.20;99.90;;;;;;5091017;28;20820;-65
2021/09/06 06:45:25;;;;;;;14.70;13.20;;;13.30;99.90;;;;;;5091380;28;20527;-65
2021/09/06 06:47:52;;;;;;;15.67;13.17;;;13.50;99.90;;;;;;5091313;28;20448;-66
2021/09/06 06:50:20;;;;;;;20.13;14.40;;;13.60;99.90;;;;;;5091436;28;20464;-65
2021/09/06 06:52:49;;;;;;;16.73;13.17;;;13.70;99.90;;;;;;5090695;28;20481;-66
2021/09/06 06:55:15;;;;;;;15.30;13.70;;;13.80;99.90;;;;;;5091238;28;20829;-67
2021/09/06 06:57:42;;;;;;;15.90;14.20;;;13.90;99.90;;;;;;5091252;28;20871;-68
2021/09/06 07:00:10;;;;;;;14.60;12.73;;;14.00;99.90;;;;;;5090730;28;21015;-66
2021/09/06 07:02:37;;;;;;;16.57;13.83;;;14.10;99.90;;;;;;5090703;28;20505;-65
2021/09/06 07:05:05;;;;;;;17.53;15.57;;;14.20;99.90;;;;;;5090686;28;20854;-65
2021/09/06 07:07:32;;;;;;;18.03;14.00;;;14.30;99.90;;;;;;5090733;28;20438;-66
2021/09/06 07:10:00;;;;;;;14.60;13.10;;;14.40;99.90;;;;;;5091026;28;20439;-66
2021/09/06 07:12:27;;;;;;;14.20;12.70;;;14.40;99.90;;;;;;5089954;28;20446;-66
2021/09/06 07:14:54;;;;;;;16.37;14.77;;;14.50;99.90;;;;;;5090584;28;21100;-65
2021/09/06 07:17:21;;;;;;;14.87;11.80;;;14.70;99.90;;;;;;5090663;28;20445;-65
2021/09/06 07:19:47;;;;;;;15.80;14.10;;;14.80;99.90;;;;;;5090594;28;20470;-66
2021/09/06 07:22:14;;;;;;;15.57;13.90;;;14.90;99.90;;;;;;5090514;28;20454;-65
2021/09/06 07:24:41;;;;;;;15.17;12.70;;;15.00;99.90;;;;;;5090593;28;20470;-66
2021/09/06 07:27:09;;;;;;;15.17;12.47;;;15.20;99.90;;;;;;5090350;28;20448;-66
2021/09/06 07:29:36;;;;;;;14.00;12.60;;;15.30;99.90;;;;;;5090434;28;20446;-66
2021/09/06 07:32:04;;;;;;;14.87;13.37;;;15.50;99.90;;;;;;5090077;28;20446;-63
2021/09/06 07:34:34;;;;;;;14.03;12.20;;;15.60;99.90;;;;;;5090179;28;20553;-65
2021/09/06 07:37:01;;;;;;;13.73;12.30;;;15.80;99.90;;;;;;5090025;28;20507;-64
2021/09/06 07:39:28;;;;;;;13.10;11.70;;;15.90;99.90;;;;;;5090332;28;20546;-66
2021/09/06 07:41:55;;;;;;;12.83;11.47;;;16.00;99.90;;;;;;5089634;28;20462;-65
2021/09/06 07:44:24;;;;;;;13.63;12.13;;;16.20;99.90;;;;;;5084152;28;20468;-64
2021/09/06 07:46:52;;;;;;;14.60;12.40;;;16.30;99.90;;;;;;5089601;28;20700;-64
2021/09/06 07:49:19;;;;;;;13.50;12.10;;;16.40;99.90;;;;;;5089711;28;20530;-64
2021/09/06 07:51:52;;;;;;;12.70;11.40;;;16.50;99.90;;;;;;5079411;28;20967;-64
2021/09/06 07:54:19;;;;;;;13.20;11.80;;;16.60;99.90;;;;;;5089435;28;20499;-64
2021/09/06 07:56:47;;;;;;;13.90;12.40;;;16.80;99.90;;;;;;5090062;28;20457;-64
2021/09/06 07:59:14;;;;;;;11.13;10.03;;;17.00;99.90;;;;;;5077350;28;20533;-68
2021/09/06 08:01:42;;;;;;;12.00;10.80;;;17.00;99.90;;;;;;5077881;28;20559;-70
2021/09/06 08:04:09;;;;;;;12.07;10.80;;;17.20;99.90;;;;;;5077014;28;20615;-68
2021/09/06 08:06:36;;;;;;;11.43;10.23;;;17.40;99.90;;;;;;5075721;28;20474;-65
2021/09/06 08:09:03;;;;;;;10.33;9.33;;;17.50;99.90;;;;;;5079488;28;20460;-70
2021/09/06 08:11:31;;;;;;;11.07;9.80;;;17.60;99.90;;;;;;5078918;28;20439;-65
2021/09/06 08:13:58;;;;;;;11.17;9.97;;;17.70;99.90;;;;;;5081186;28;20489;-66
2021/09/06 08:16:25;;;;;;;13.10;10.53;;;17.80;99.90;;;;;;5088315;28;20441;-63
2021/09/06 08:18:54;;;;;;;11.03;9.90;;;17.90;99.90;;;;;;5080025;28;20528;-66
2021/09/06 08:21:21;;;;;;;11.03;9.93;;;18.10;99.90;;;;;;5086696;28;20493;-66
2021/09/06 08:23:47;;;;;;;10.40;9.20;;;18.30;99.90;;;;;;5075540;28;20471;-66
2021/09/06 08:26:14;;;;;;;11.87;10.10;;;18.40;99.90;;;;;;5079128;28;20851;-66
2021/09/06 08:28:41;;;;;;;9.80;8.67;;;18.60;99.90;;;;;;5076546;28;20554;-64
2021/09/06 08:31:09;;;;;;;10.63;9.07;;;18.80;99.90;;;;;;5080173;28;20446;-67
2021/09/06 08:33:36;;;;;;;11.10;9.40;;;18.90;99.90;;;;;;5082717;28;20504;-64
2021/09/06 08:36:04;;;;;;;10.50;9.40;;;19.10;99.90;;;;;;5083491;28;20844;-66
2021/09/06 08:38:31;;;;;;;13.03;9.60;;;19.20;99.90;;;;;;5082481;28;20849;-66
2021/09/06 08:40:58;;;;;;;9.80;8.70;;;19.40;99.90;;;;;;5081192;28;20489;-65
2021/09/06 08:43:27;;;;;;;9.73;8.70;;;19.50;99.90;;;;;;5084487;28;20502;-65
2021/09/06 08:45:54;;;;;;;12.53;9.93;;;19.70;99.90;;;;;;5088868;28;20454;-65
2021/09/06 08:48:21;;;;;;;9.37;8.10;;;19.90;99.90;;;;;;5090395;28;20441;-65
2021/09/06 08:50:48;;;;;;;10.13;9.20;;;20.00;99.90;;;;;;5092692;28;20517;-66
2021/09/06 08:53:16;;;;;;;9.13;8.10;;;20.20;99.90;;;;;;5092463;28;20462;-66
2021/09/06 08:55:43;;;;;;;11.80;9.17;;;20.30;99.90;;;;;;5092584;28;20522;-66
2021/09/06 08:58:10;;;;;;;10.57;9.23;;;20.50;99.90;;;;;;5090916;28;20450;-66
2021/09/06 09:00:37;;;;;;;10.67;8.80;;;20.50;99.90;;;;;;5090536;28;20478;-66
2021/09/06 09:03:10;;;;;;;10.70;9.00;;;20.70;99.90;;;;;;5085467;28;20450;-65
2021/09/06 09:05:37;;;;;;;9.97;8.97;;;20.80;99.90;;;;;;5081256;28;20449;-67
2021/09/06 09:08:04;;;;;;;10.90;9.30;;;20.90;99.90;;;;;;5091534;28;20450;-65
2021/09/06 09:10:37;;;;;;;11.10;9.93;;;21.20;99.90;;;;;;5079762;28;20461;-68
2021/09/06 09:13:05;;;;;;;10.53;9.20;;;21.40;99.90;;;;;;5081087;28;20461;-67
2021/09/06 09:15:33;;;;;;;11.23;9.30;;;21.60;99.90;;;;;;5079300;28;20482;-66
2021/09/06 09:18:00;;;;;;;10.20;9.20;;;21.80;99.90;;;;;;5078887;28;20453;-67
2021/09/06 09:20:37;;;;;;;10.33;9.23;;;22.30;99.90;;;;;;5081533;28;20484;-67
2021/09/06 09:23:05;;;;;;;11.40;9.10;;;22.90;99.90;;;;;;5081411;28;20453;-68
2021/09/06 09:25:34;;;;;;;10.83;9.73;;;23.50;99.90;;;;;;5087055;28;20442;-67
2021/09/06 09:28:01;;;;;;;9.60;8.60;;;24.00;99.90;;;;;;5091911;28;20444;-68
2021/09/06 09:30:30;;;;;;;10.10;9.10;;;24.50;99.90;;;;;;5091278;28;20510;-67
2021/09/06 09:33:08;;;;;;;9.60;8.60;;;24.80;99.90;;;;;;5080716;28;20480;-67
2021/09/06 09:35:35;;;;;;;11.73;9.27;;;25.20;99.90;;;;;;5081453;28;20884;-67
2021/09/06 09:38:03;;;;;;;9.67;8.50;;;25.20;99.90;;;;;;5080919;28;20527;-68
2021/09/06 09:40:37;;;;;;;11.40;8.57;;;25.60;99.90;;;;;;5077019;28;20560;-68
2021/09/06 09:43:04;;;;;;;8.30;7.50;;;26.00;99.90;;;;;;5085068;28;20450;-67
2021/09/06 09:45:33;;;;;;;10.63;9.53;;;26.40;99.90;;;;;;5080175;28;20538;-68
2021/09/06 09:48:01;;;;;;;8.27;7.50;;;26.40;98.20;;;;;;5085038;28;20969;-68
2021/09/06 09:50:31;;;;;;;9.40;8.50;;;26.20;99.40;;;;;;5080194;28;20453;-67
2021/09/06 09:52:58;;;;;;;9.00;8.20;;;26.30;97.70;;;;;;5078171;28;20453;-67
2021/09/06 09:55:25;;;;;;;9.13;8.27;;;26.50;98.60;;;;;;5082953;28;20527;-67
2021/09/06 09:57:55;;;;;;;9.70;8.57;;;26.70;98.10;;;;;;5083653;28;20971;-67
2021/09/06 10:00:22;;;;;;;7.63;6.83;;;27.10;97.50;;;;;;5073032;28;20442;-67
2021/09/06 10:02:53;;;;;;;8.60;7.70;;;27.30;95.30;;;;;;5076803;28;20542;-68
2021/09/06 10:05:24;;;;;;;7.47;6.77;;;27.00;93.90;;;;;;5084064;28;20833;-67
2021/09/06 10:07:52;;;;;;;9.20;7.20;;;27.30;92.80;;;;;;5080174;28;20547;-66
2021/09/06 10:10:21;;;;;;;7.80;7.00;;;27.40;92.20;;;;;;5079693;28;20444;-67
2021/09/06 10:12:50;;;;;;;8.23;7.43;;;27.50;93.30;;;;;;5082781;28;20433;-67
2021/09/06 10:15:18;;;;;;;8.00;7.23;;;27.80;93.50;;;;;;5078459;28;20955;-67
2021/09/06 10:17:48;;;;;;;7.70;6.97;;;28.10;92.50;;;;;;5074496;28;20466;-67
2021/09/06 10:20:21;;;;;;;8.30;6.47;;;28.40;90.70;;;;;;5080458;28;20446;-67
2021/09/06 10:23:00;;;;;;;7.83;7.03;;;28.50;90.70;;;;;;5074731;28;20529;-70
2021/09/06 10:25:30;;;;;;;8.13;7.33;;;28.60;91.30;;;;;;5077231;28;21459;-66
2021/09/06 10:28:03;;;;;;;8.67;7.87;;;28.50;89.00;;;;;;5082837;28;20454;-67
2021/09/06 10:30:37;;;;;;;9.90;7.77;;;28.70;88.80;;;;;;5077650;28;20451;-66
2021/09/06 10:33:04;;;;;;;8.87;7.60;;;29.00;91.10;;;;;;5079325;28;20534;-67
2021/09/06 10:35:32;;;;;;;8.53;7.73;;;28.90;88.00;;;;;;5074906;28;20539;-67
2021/09/06 10:38:05;;;;;;;7.90;7.00;;;29.10;89.80;;;;;;5078008;28;20458;-66
2021/09/06 10:40:33;;;;;;;8.20;7.40;;;29.30;90.20;;;;;;5080886;28;20478;-66
2021/09/06 10:43:12;;;;;;;7.63;6.93;;;29.50;88.70;;;;;;5090397;28;20533;-66
2021/09/06 10:45:40;;;;;;;8.20;7.33;;;29.70;84.90;;;;;;5082222;28;20511;-66
2021/09/06 10:48:07;;;;;;;7.93;7.13;;;30.00;87.70;;;;;;5077148;28;20443;-66
2021/09/06 10:50:38;;;;;;;7.80;7.00;;;30.40;85.20;;;;;;5077244;28;20473;-65
2021/09/06 10:53:05;;;;;;;8.97;6.70;;;30.50;84.90;;;;;;5074510;28;20458;-65
2021/09/06 10:55:32;;;;;;;7.53;6.90;;;30.70;84.50;;;;;;5076805;28;20457;-66
2021/09/06 10:58:00;;;;;;;9.57;7.50;;;30.90;83.80;;;;;;5075334;28;20463;-65
2021/09/06 11:00:27;;;;;;;8.23;7.43;;;30.90;82.20;;;;;;5073463;28;20450;-65
2021/09/06 11:02:55;;;;;;;8.43;7.07;;;31.10;81.10;;;;;;5076955;28;20860;-65
2021/09/06 11:05:24;;;;;;;8.50;7.70;;;30.80;81.90;;;;;;5072546;28;20460;-64
2021/09/06 11:07:52;;;;;;;7.70;7.00;;;30.90;80.70;;;;;;5079296;28;20457;-64
2021/09/06 11:10:22;;;;;;;7.57;6.87;;;31.00;77.80;;;;;;5088480;28;20954;-64
2021/09/06 11:12:54;;;;;;;7.70;7.00;;;31.30;79.00;;;;;;5088930;28;20825;-69
2021/09/06 11:15:26;;;;;;;18.93;8.20;;;31.50;78.70;;;;;;5089868;28;20442;-65
2021/09/06 11:17:59;;;;;;;16.00;7.60;;;31.70;77.40;;;;;;5089363;28;20879;-66
2021/09/06 11:20:27;;;;;;;9.27;7.57;;;32.00;77.60;;;;;;5089497;28;20453;-65
2021/09/06 11:22:58;;;;;;;7.37;6.67;;;32.40;76.40;;;;;;5089222;28;20482;-66
2021/09/06 11:25:26;;;;;;;7.17;6.47;;;32.70;73.80;;;;;;5089467;28;20472;-66
2021/09/06 11:27:53;;;;;;;10.30;7.20;;;33.00;69.90;;;;;;5088842;28;20450;-65
2021/09/06 11:30:24;;;;;;;8.10;7.30;;;33.40;69.00;;;;;;5089376;28;20449;-66
2021/09/06 11:32:52;;;;;;;8.83;8.03;;;33.70;71.60;;;;;;5088828;28;20534;-65
2021/09/06 11:35:20;;;;;;;7.30;6.70;;;34.00;68.60;;;;;;5089227;28;21023;-65
2021/09/06 11:37:49;;;;;;;12.40;7.63;;;34.30;64.10;;;;;;5089495;28;20452;-65
2021/09/06 11:40:17;;;;;;;7.70;7.00;;;34.60;62.80;;;;;;5089263;28;20450;-65
2021/09/06 11:42:45;;;;;;;6.80;6.10;;;34.70;60.90;;;;;;5088869;28;21016;-65
2021/09/06 11:45:14;;;;;;;8.13;7.33;;;35.00;60.70;;;;;;5089172;28;21054;-65
2021/09/06 11:47:41;;;;;;;7.00;6.27;;;35.30;59.90;;;;;;5088815;28;20503;-66
2021/09/06 11:50:11;;;;;;;7.40;6.70;;;35.50;60.90;;;;;;5089238;28;20459;-67
2021/09/06 11:52:40;;;;;;;7.33;6.53;;;35.80;60.70;;;;;;5088585;28;20489;-66
2021/09/06 11:55:13;;;;;;;7.43;6.70;;;35.50;59.10;;;;;;5088978;28;20533;-65
2021/09/06 11:57:40;;;;;;;8.77;6.90;;;35.80;61.60;;;;;;5089243;28;20533;-66
2021/09/06 12:00:08;;;;;;;7.10;6.40;;;36.30;54.50;;;;;;5089077;28;20449;-67
2021/09/06 12:02:46;;;;;;;6.80;6.20;;;35.90;55.00;;;;;;5088805;28;20497;-66
2021/09/06 12:05:15;;;;;;;7.47;6.87;;;35.60;55.50;;;;;;5088691;28;20456;-66
2021/09/06 12:07:48;;;;;;;6.90;6.30;;;36.10;54.60;;;;;;5088063;28;20468;-66
2021/09/06 12:10:26;;;;;;;6.90;6.20;;;37.10;57.70;;;;;;5079491;28;20664;-66
2021/09/06 12:13:04;;;;;;;10.40;6.10;;;37.40;50.10;;;;;;5084326;28;20446;-65
2021/09/06 12:15:32;;;;;;;6.57;5.90;;;37.90;52.40;;;;;;5078967;28;20441;-65
2021/09/06 12:18:10;;;;;;;7.10;6.37;;;37.60;52.40;;;;;;5079717;28;20882;-66
2021/09/06 12:20:40;;;;;;;6.93;6.33;;;38.10;53.50;;;;;;5088412;28;20433;-65
2021/09/06 12:23:11;;;;;;;6.63;6.03;;;38.30;52.70;;;;;;5082328;28;21019;-65
2021/09/06 12:25:38;;;;;;;6.90;6.30;;;37.40;53.40;;;;;;5093031;28;20529;-65
2021/09/06 12:28:10;;;;;;;8.87;6.30;;;36.20;51.40;;;;;;5092997;28;20449;-65
2021/09/06 12:30:38;;;;;;;6.80;6.10;;;36.40;51.10;;;;;;5092827;28;20446;-65
2021/09/06 12:33:06;;;;;;;6.67;6.07;;;37.00;48.80;;;;;;5092567;28;20932;-65
2021/09/06 12:35:33;;;;;;;6.23;5.63;;;36.60;48.30;;;;;;5092588;28;20824;-65